createdAt,value
2023-02-05T00:02:18.271Z,64.86
2023-02-05T00:07:39.103Z,64.93
2023-02-05T00:12:59.799Z,64.70
2023-02-05T00:18:20.608Z,64.52
2023-02-05T00:23:41.952Z,64.40
2023-02-05T00:29:02.898Z,64.53
2023-02-05T00:34:23.821Z,64.40
2023-02-05T00:39:44.510Z,64.53
2023-02-05T00:45:07.318Z,63.84
2023-02-05T00:50:28.856Z,63.91
2023-02-05T00:55:51.008Z,64.27
2023-02-05T01:01:14.291Z,64.37
2023-02-05T01:06:35.550Z,64.11
2023-02-05T01:11:56.206Z,64.21
2023-02-05T01:17:17.254Z,63.63
2023-02-05T01:22:38.176Z,63.49
2023-02-05T01:28:00.214Z,63.90
2023-02-05T01:33:21.557Z,63.96
2023-02-05T01:38:42.143Z,63.96
2023-02-05T01:44:19.204Z,63.57
2023-02-05T01:49:43.737Z,63.09
2023-02-05T01:55:07.630Z,63.54
2023-02-05T02:00:28.725Z,63.59
2023-02-05T02:05:49.431Z,63.62
2023-02-05T02:11:13.749Z,63.63
2023-02-05T02:16:36.901Z,63.16
2023-02-05T02:22:29.857Z,63.81
2023-02-05T02:28:00.214Z,63.14
2023-02-05T02:33:23.462Z,63.70
2023-02-05T02:39:28.356Z,63.51
2023-02-05T02:44:56.833Z,63.72
2023-02-05T02:50:35.402Z,63.40
2023-02-05T02:55:58.740Z,63.14
2023-02-05T03:01:24.201Z,63.09
2023-02-05T03:06:48.524Z,63.65
2023-02-05T03:12:09.544Z,63.47
2023-02-05T03:17:31.967Z,64.18
2023-02-05T03:22:53.058Z,63.11
2023-02-05T03:28:14.329Z,62.88
2023-02-05T03:34:11.498Z,63.30
2023-02-05T03:39:48.507Z,63.08
2023-02-05T03:45:21.464Z,62.69
2023-02-05T03:50:54.339Z,63.00
2023-02-05T03:56:22.310Z,63.05
2023-02-05T04:01:45.655Z,63.62
2023-02-05T04:07:08.106Z,63.03
2023-02-05T04:12:30.342Z,63.05
2023-02-05T04:17:51.048Z,63.39
2023-02-05T04:23:13.164Z,62.74
2023-02-05T04:28:36.346Z,63.13
2023-02-05T04:33:59.534Z,62.89
2023-02-05T04:39:20.836Z,62.78
2023-02-05T04:44:41.495Z,62.42
2023-02-05T04:50:02.221Z,62.24
2023-02-05T04:55:23.117Z,62.90
2023-02-05T05:00:43.898Z,62.47
2023-02-05T05:06:05.801Z,63.08
2023-02-05T05:11:26.645Z,63.73
2023-02-05T05:16:49.629Z,63.46
2023-02-05T05:22:10.377Z,62.88
2023-02-05T05:27:31.199Z,63.28
2023-02-05T05:32:52.014Z,63.05
2023-02-05T05:38:12.887Z,62.86
2023-02-05T05:43:48.736Z,62.92
2023-02-05T05:49:09.729Z,63.88
2023-02-05T05:54:30.697Z,63.89
2023-02-05T05:59:51.220Z,62.96
2023-02-05T06:05:12.975Z,62.79
2023-02-05T06:10:34.194Z,62.96
2023-02-05T06:15:55.048Z,61.97
2023-02-05T06:21:15.676Z,62.73
2023-02-05T06:26:36.452Z,62.71
2023-02-05T06:31:57.054Z,63.38
2023-02-05T06:37:17.823Z,63.07
2023-02-05T06:42:38.720Z,63.07
2023-02-05T06:47:59.692Z,63.28
2023-02-05T06:53:20.606Z,63.41
2023-02-05T06:58:41.217Z,63.26
2023-02-05T07:04:02.300Z,63.82
2023-02-05T07:09:23.815Z,63.04
2023-02-05T07:14:44.684Z,63.61
2023-02-05T07:20:06.246Z,63.67
2023-02-05T07:25:27.151Z,63.81
2023-02-05T07:30:49.805Z,63.65
2023-02-05T07:36:12.219Z,63.86
2023-02-05T07:41:33.417Z,63.86
2023-02-05T07:46:54.603Z,64.09
2023-02-05T07:52:15.836Z,63.93
2023-02-05T07:57:36.533Z,64.23
2023-02-05T08:02:57.400Z,63.48
2023-02-05T08:08:18.326Z,63.56
2023-02-05T08:13:39.015Z,63.50
2023-02-05T08:18:59.715Z,64.08
2023-02-05T08:24:20.495Z,63.88
2023-02-05T08:29:41.900Z,63.50
2023-02-05T08:35:02.792Z,64.02
2023-02-05T08:40:24.289Z,64.15
2023-02-05T08:45:48.421Z,63.48
2023-02-05T08:51:10.681Z,63.22
2023-02-05T08:56:31.900Z,62.42
2023-02-05T09:01:52.421Z,62.94
2023-02-05T09:07:13.229Z,62.90
2023-02-05T09:12:34.241Z,62.99
2023-02-05T09:17:56.397Z,63.06
2023-02-05T09:23:18.769Z,62.69
2023-02-05T09:28:40.268Z,63.19
2023-02-05T09:34:05.701Z,62.23
2023-02-05T09:40:11.980Z,62.45
2023-02-05T09:45:16.372Z,62.49
2023-02-05T09:50:38.133Z,62.66
2023-02-05T09:56:01.649Z,63.20
2023-02-05T10:01:43.701Z,62.15
2023-02-05T10:07:24.200Z,63.86
2023-02-05T10:12:51.938Z,62.61
2023-02-05T10:18:54.521Z,62.26
2023-02-05T10:24:36.894Z,62.10
2023-02-05T10:30:04.164Z,61.37
2023-02-05T10:35:44.418Z,61.27
2023-02-05T10:41:13.284Z,61.20
2023-02-05T10:46:36.584Z,61.41
2023-02-05T10:51:57.418Z,61.77
2023-02-05T10:57:20.984Z,60.59
2023-02-05T11:02:47.532Z,60.50
2023-02-05T11:08:38.951Z,60.74
2023-02-05T11:14:07.014Z,60.78
2023-02-05T11:19:29.039Z,64.67
2023-02-05T11:24:50.101Z,60.74
2023-02-05T11:30:49.955Z,60.09
2023-02-05T11:36:21.609Z,60.12
2023-02-05T11:41:48.662Z,60.55
2023-02-05T11:47:09.765Z,60.62
2023-02-05T11:52:37.668Z,60.12
2023-02-05T11:58:01.489Z,60.05
2023-02-05T12:03:22.741Z,60.64
2023-02-05T12:08:52.220Z,59.84
2023-02-05T12:14:23.027Z,60.20
2023-02-05T12:19:58.469Z,60.29
2023-02-05T12:25:27.574Z,60.34
2023-02-05T12:30:52.549Z,60.33
2023-02-05T12:36:16.197Z,59.70
2023-02-05T12:41:50.336Z,59.94
2023-02-05T12:47:29.517Z,60.20
2023-02-05T12:52:56.244Z,59.90
2023-02-05T12:58:20.513Z,59.82
2023-02-05T13:03:48.455Z,59.58
2023-02-05T13:09:17.606Z,59.77
2023-02-05T13:14:43.539Z,59.63
2023-02-05T13:20:12.332Z,59.52
2023-02-05T13:26:04.631Z,65.30
2023-02-05T13:31:33.203Z,60.66
2023-02-05T13:37:22.883Z,59.90
2023-02-05T13:43:02.429Z,60.50
2023-02-05T13:48:41.971Z,60.39
2023-02-05T13:54:31.311Z,60.45
2023-02-05T13:59:54.407Z,60.02
2023-02-05T14:05:26.962Z,60.08
2023-02-05T14:11:00.657Z,60.19
2023-02-05T14:16:24.530Z,60.23
2023-02-05T14:21:45.107Z,60.69
2023-02-05T14:27:31.344Z,60.29
2023-02-05T14:32:52.138Z,60.53
2023-02-05T14:38:35.690Z,60.60
2023-02-05T14:44:30.239Z,60.09
2023-02-05T14:49:53.225Z,59.99
2023-02-05T14:55:13.864Z,59.72
2023-02-05T15:00:44.647Z,60.76
2023-02-05T15:06:14.032Z,60.81
2023-02-05T15:11:53.394Z,60.38
2023-02-05T15:17:16.142Z,60.44
2023-02-05T15:22:53.731Z,60.58
2023-02-05T15:28:24.636Z,60.41
2023-02-05T15:33:56.601Z,60.31
2023-02-05T15:39:31.243Z,60.31
2023-02-05T15:44:52.565Z,60.62
2023-02-05T15:50:14.925Z,60.86
2023-02-05T15:55:35.858Z,60.51
2023-02-05T16:00:57.422Z,60.76
2023-02-05T16:06:20.259Z,60.92
2023-02-05T16:11:43.051Z,61.09
2023-02-05T16:17:17.197Z,60.44
2023-02-05T16:22:42.833Z,60.13
2023-02-05T16:28:11.242Z,60.59
2023-02-05T16:33:40.973Z,60.44
2023-02-05T16:39:04.774Z,60.16
2023-02-05T16:44:33.236Z,60.38
2023-02-05T16:49:54.614Z,60.97
2023-02-05T16:55:42.848Z,60.59
2023-02-05T17:01:04.274Z,60.36
2023-02-05T17:06:34.166Z,60.70
2023-02-05T17:11:54.887Z,60.45
2023-02-05T17:17:17.459Z,60.27
2023-02-05T17:22:38.260Z,60.90
2023-02-05T17:28:01.653Z,60.90
2023-02-05T17:33:24.483Z,60.81
2023-02-05T17:38:46.692Z,60.64
2023-02-05T17:44:11.651Z,60.40
2023-02-05T17:49:33.677Z,59.75
2023-02-05T17:54:54.374Z,60.20
2023-02-05T18:00:27.680Z,60.19
2023-02-05T18:05:49.309Z,60.40
2023-02-05T18:11:10.738Z,60.51
2023-02-05T18:16:31.857Z,60.82
2023-02-05T18:21:53.305Z,60.47
2023-02-05T18:27:14.031Z,59.98
2023-02-05T18:32:34.932Z,59.84
2023-02-05T18:37:55.644Z,60.09
2023-02-05T18:43:16.638Z,59.96
2023-02-05T18:48:40.760Z,59.46
2023-02-05T18:54:01.717Z,59.66
2023-02-05T18:59:26.127Z,59.66
2023-02-05T19:04:52.050Z,59.54
2023-02-05T19:10:12.751Z,60.13
2023-02-05T19:15:34.751Z,59.71
2023-02-05T19:20:55.635Z,59.85
2023-02-05T19:26:19.318Z,60.21
2023-02-05T19:31:40.496Z,59.72
2023-02-05T19:37:01.884Z,59.97
2023-02-05T19:42:23.111Z,60.25
2023-02-05T19:47:44.065Z,60.41
2023-02-05T19:53:05.298Z,60.14
2023-02-05T19:58:25.938Z,59.88
2023-02-05T20:03:46.849Z,59.92
2023-02-05T20:09:10.882Z,59.88
2023-02-05T20:14:31.600Z,60.29
2023-02-05T20:19:59.650Z,60.13
2023-02-05T20:25:27.068Z,59.63
2023-02-05T20:31:06.241Z,59.37
2023-02-05T20:36:28.338Z,59.79
2023-02-05T20:41:51.520Z,60.13
2023-02-05T20:47:14.567Z,59.56
2023-02-05T20:52:35.266Z,60.45
2023-02-05T20:57:56.029Z,60.29
2023-02-05T21:03:17.060Z,59.82
2023-02-05T21:08:43.393Z,59.70
2023-02-05T21:14:06.997Z,59.92
2023-02-05T21:19:27.977Z,60.48
2023-02-05T21:24:49.634Z,60.43
2023-02-05T21:30:11.309Z,61.52
2023-02-05T21:35:34.535Z,60.78
2023-02-05T21:40:55.410Z,60.80
2023-02-05T21:46:16.636Z,60.68
2023-02-05T21:51:37.746Z,59.92
2023-02-05T21:56:58.368Z,59.90
2023-02-05T22:02:19.032Z,60.29
2023-02-05T22:07:39.958Z,59.74
2023-02-05T22:13:00.534Z,60.21
2023-02-05T22:18:21.261Z,59.78
2023-02-05T22:23:43.885Z,59.57
2023-02-05T22:29:07.203Z,59.96
2023-02-05T22:34:28.156Z,60.61
2023-02-05T22:39:48.877Z,60.17
2023-02-05T22:45:09.818Z,60.23
2023-02-05T22:50:30.630Z,60.71
2023-02-05T22:55:51.274Z,59.70
2023-02-05T23:01:24.482Z,60.35
2023-02-05T23:06:45.309Z,60.44
2023-02-05T23:12:07.103Z,59.78
2023-02-05T23:17:28.101Z,60.27
2023-02-05T23:22:48.619Z,59.84
2023-02-05T23:28:09.547Z,59.31
2023-02-05T23:33:30.651Z,59.53
2023-02-05T23:38:51.390Z,59.98
2023-02-05T23:44:18.259Z,59.63
2023-02-05T23:49:38.864Z,59.88
2023-02-05T23:54:59.493Z,59.18
